createdAt,value
2018-08-17T00:01:22.252Z,83.70
2018-08-17T00:03:56.719Z,83.60
2018-08-17T00:06:30.946Z,84.60
2018-08-17T00:09:08.172Z,85.60
2018-08-17T00:11:42.589Z,86.30
2018-08-17T00:14:16.871Z,85.10
2018-08-17T00:16:51.185Z,83.90
2018-08-17T00:19:25.456Z,83.80
2018-08-17T00:21:59.754Z,84.70
2018-08-17T00:24:33.980Z,85.40
2018-08-17T00:27:08.236Z,84.90
2018-08-17T00:29:42.585Z,84.60
2018-08-17T00:32:16.879Z,84.80
2018-08-17T00:34:51.240Z,85.10
2018-08-17T00:37:25.423Z,84.60
2018-08-17T00:39:59.724Z,84.50
2018-08-17T00:42:33.913Z,84.00
2018-08-17T00:45:08.219Z,83.60
2018-08-17T00:47:42.548Z,83.10
2018-08-17T00:50:16.823Z,82.70
2018-08-17T00:52:51.020Z,83.30
2018-08-17T00:55:25.399Z,82.20
2018-08-17T00:57:59.852Z,82.60
2018-08-17T01:00:34.024Z,82.30
2018-08-17T01:03:08.884Z,81.60
2018-08-17T01:05:43.292Z,81.40
2018-08-17T01:08:17.576Z,81.90
2018-08-17T01:10:51.912Z,82.20
2018-08-17T01:13:26.231Z,82.00
2018-08-17T01:16:00.571Z,82.70
2018-08-17T01:18:34.885Z,83.30
2018-08-17T01:21:09.167Z,83.20
2018-08-17T01:23:43.460Z,82.90
2018-08-17T01:26:17.852Z,82.90
2018-08-17T01:28:52.036Z,83.40
2018-08-17T01:31:26.387Z,83.40
2018-08-17T01:34:00.668Z,83.70
2018-08-17T01:36:35.076Z,83.60
2018-08-17T01:39:10.087Z,83.20
2018-08-17T01:41:44.414Z,83.20
2018-08-17T01:44:18.741Z,84.00
2018-08-17T01:46:53.050Z,84.80
2018-08-17T01:49:27.372Z,84.60
2018-08-17T01:52:01.727Z,84.20
2018-08-17T01:54:36.416Z,83.50
2018-08-17T01:57:10.639Z,83.50
2018-08-17T01:59:44.908Z,83.00
2018-08-17T02:02:19.219Z,82.90
2018-08-17T02:04:53.463Z,83.90
2018-08-17T02:07:27.883Z,85.40
2018-08-17T02:10:02.092Z,85.50
2018-08-17T02:12:36.640Z,86.40
2018-08-17T02:15:10.839Z,87.40
2018-08-17T02:17:45.120Z,87.40
2018-08-17T02:20:19.447Z,87.60
2018-08-17T02:22:53.783Z,87.90
2018-08-17T02:25:28.054Z,88.40
2018-08-17T02:28:02.288Z,88.20
2018-08-17T02:30:36.606Z,88.40
2018-08-17T02:33:11.004Z,88.30
2018-08-17T02:35:45.192Z,89.00
2018-08-17T02:38:19.380Z,89.80
2018-08-17T02:40:53.688Z,88.50
2018-08-17T02:46:07.963Z,88.80
2018-08-17T02:48:42.421Z,88.60
2018-08-17T02:51:16.779Z,88.80
2018-08-17T02:53:51.120Z,89.50
2018-08-17T02:56:25.476Z,89.30
2018-08-17T02:58:59.864Z,89.70
2018-08-17T03:01:34.196Z,90.00
2018-08-17T03:04:08.531Z,89.90
2018-08-17T03:06:42.911Z,88.90
2018-08-17T03:09:17.132Z,89.50
2018-08-17T03:11:51.388Z,90.10
2018-08-17T03:14:25.774Z,90.50
2018-08-17T03:17:00.126Z,90.80
2018-08-17T03:19:34.499Z,90.50
2018-08-17T03:22:08.800Z,91.30
2018-08-17T03:24:43.075Z,91.10
2018-08-17T03:27:17.376Z,90.50
2018-08-17T03:29:51.677Z,90.80
2018-08-17T03:32:26.027Z,91.00
2018-08-17T03:35:00.299Z,91.40
2018-08-17T03:37:34.659Z,91.50
2018-08-17T03:40:08.980Z,91.10
2018-08-17T03:42:43.175Z,91.10
2018-08-17T03:45:17.548Z,91.80
2018-08-17T03:47:52.012Z,91.00
2018-08-17T03:50:26.264Z,90.40
2018-08-17T03:53:00.584Z,90.30
2018-08-17T03:55:34.888Z,89.70
2018-08-17T03:58:09.228Z,88.60
2018-08-17T04:00:43.536Z,88.30
2018-08-17T04:03:17.902Z,87.90
2018-08-17T04:05:52.208Z,88.90
2018-08-17T04:08:26.360Z,88.70
2018-08-17T04:11:00.587Z,88.70
2018-08-17T04:13:34.839Z,90.00
2018-08-17T04:16:09.224Z,90.50
2018-08-17T04:18:58.904Z,89.70
2018-08-17T04:21:33.308Z,89.40
2018-08-17T04:24:07.675Z,89.20
2018-08-17T04:26:41.883Z,89.20
2018-08-17T04:29:16.167Z,88.80
2018-08-17T04:31:50.446Z,88.40
2018-08-17T04:34:24.879Z,87.80
2018-08-17T04:36:59.032Z,87.90
2018-08-17T04:39:33.308Z,88.70
2018-08-17T04:42:07.863Z,88.70
2018-08-17T04:44:42.999Z,89.30
2018-08-17T04:47:17.220Z,90.10
2018-08-17T04:49:51.507Z,89.60
2018-08-17T04:52:25.867Z,90.00
2018-08-17T04:55:00.237Z,89.20
2018-08-17T04:57:34.704Z,90.40
2018-08-17T05:00:09.860Z,91.00
2018-08-17T05:02:44.092Z,91.40
2018-08-17T05:05:18.428Z,90.20
2018-08-17T05:07:52.680Z,90.50
2018-08-17T05:10:27.064Z,90.10
2018-08-17T05:13:01.425Z,90.30
2018-08-17T05:15:35.728Z,90.90
2018-08-17T05:18:11.100Z,91.10
2018-08-17T05:20:45.305Z,91.40
2018-08-17T05:23:19.624Z,92.00
2018-08-17T05:25:53.861Z,92.10
2018-08-17T05:28:28.368Z,91.40
2018-08-17T05:31:02.690Z,91.60
2018-08-17T05:33:36.896Z,91.90
2018-08-17T05:36:11.219Z,91.70
2018-08-17T05:38:45.740Z,91.60
2018-08-17T05:41:20.104Z,91.50
2018-08-17T05:43:54.455Z,91.30
2018-08-17T05:46:28.844Z,91.50
2018-08-17T05:49:03.160Z,92.00
2018-08-17T05:51:37.520Z,91.90
2018-08-17T05:54:11.854Z,92.20
2018-08-17T05:56:46.184Z,92.00
2018-08-17T05:59:20.420Z,92.20
2018-08-17T06:01:54.642Z,92.00
2018-08-17T06:04:28.936Z,91.90
2018-08-17T06:07:03.503Z,91.50
2018-08-17T06:09:37.987Z,91.30
2018-08-17T06:12:12.192Z,91.00
2018-08-17T06:14:46.487Z,90.70
2018-08-17T06:17:20.788Z,90.90
2018-08-17T06:19:55.092Z,91.20
2018-08-17T06:22:29.318Z,90.90
2018-08-17T06:25:08.217Z,91.50
2018-08-17T06:27:42.919Z,91.00
2018-08-17T06:30:17.304Z,91.30
2018-08-17T06:32:51.556Z,91.30
2018-08-17T06:35:25.900Z,88.20
2018-08-17T06:38:00.236Z,88.20
2018-08-17T06:40:34.532Z,90.80
2018-08-17T06:43:08.865Z,93.10
2018-08-17T06:45:43.132Z,94.70
2018-08-17T06:48:17.417Z,94.00
2018-08-17T06:50:51.873Z,94.30
2018-08-17T06:53:26.063Z,94.50
2018-08-17T06:56:00.209Z,95.20
2018-08-17T06:58:34.420Z,96.30
2018-08-17T07:01:08.684Z,97.70
2018-08-17T07:03:43.065Z,96.90
2018-08-17T07:06:17.328Z,97.20
2018-08-17T07:08:51.765Z,97.30
2018-08-17T07:11:25.880Z,98.20
2018-08-17T07:14:00.203Z,99.90
2018-08-17T07:16:34.639Z,99.90
2018-08-17T07:19:08.892Z,97.50
2018-08-17T07:21:43.212Z,97.80
2018-08-17T07:24:17.463Z,97.20
2018-08-17T07:26:51.920Z,97.30
2018-08-17T07:29:26.124Z,98.10
2018-08-17T07:32:00.521Z,97.60
2018-08-17T07:34:34.707Z,97.00
2018-08-17T07:37:09.070Z,97.30
2018-08-17T07:39:43.311Z,97.90
2018-08-17T07:42:17.684Z,99.60
2018-08-17T07:44:51.867Z,99.80
2018-08-17T07:47:30.964Z,98.20
2018-08-17T07:50:06.397Z,97.90
2018-08-17T07:52:40.798Z,98.50
2018-08-17T07:55:15.368Z,98.00
2018-08-17T07:57:49.756Z,99.10
2018-08-17T08:00:24.088Z,98.70
2018-08-17T08:02:58.335Z,98.90
2018-08-17T08:05:32.716Z,99.80
2018-08-17T08:08:06.955Z,99.90
2018-08-17T08:10:41.204Z,97.80
2018-08-17T08:13:15.576Z,98.30
2018-08-17T08:15:49.893Z,98.80
2018-08-17T08:18:24.224Z,98.50
2018-08-17T08:20:58.564Z,99.00
2018-08-17T08:23:32.907Z,99.20
2018-08-17T08:26:07.346Z,98.10
2018-08-17T08:28:42.410Z,97.70
2018-08-17T08:31:19.061Z,98.20
2018-08-17T08:33:54.927Z,98.40
2018-08-17T08:36:29.288Z,97.60
2018-08-17T08:39:05.400Z,98.70
2018-08-17T08:41:39.609Z,98.50
2018-08-17T08:44:14.045Z,97.90
2018-08-17T08:46:48.260Z,99.40
2018-08-17T08:49:22.616Z,99.00
2018-08-17T08:51:57.028Z,98.70
2018-08-17T08:54:31.324Z,98.50
2018-08-17T08:57:05.652Z,99.30
2018-08-17T08:59:39.964Z,98.40
2018-08-17T09:02:14.288Z,97.10
2018-08-17T09:04:48.597Z,97.20
2018-08-17T09:07:22.866Z,97.50
2018-08-17T09:09:57.059Z,97.90
2018-08-17T09:12:31.508Z,96.40
2018-08-17T09:15:07.188Z,95.10
2018-08-17T09:17:42.571Z,95.70
2018-08-17T09:20:17.340Z,94.80
2018-08-17T09:22:51.655Z,96.30
2018-08-17T09:25:25.849Z,94.50
2018-08-17T09:28:00.200Z,95.20
2018-08-17T09:30:34.655Z,95.40
2018-08-17T09:33:09.641Z,94.10
2018-08-17T09:35:43.808Z,94.20
2018-08-17T09:38:18.131Z,94.20
2018-08-17T09:40:52.268Z,94.80
2018-08-17T09:43:26.655Z,95.70
2018-08-17T09:46:00.957Z,95.10
2018-08-17T09:48:35.161Z,94.70
2018-08-17T09:51:09.887Z,95.50
2018-08-17T09:53:44.014Z,95.20
2018-08-17T09:56:36.282Z,95.10
2018-08-17T09:59:10.583Z,94.00
2018-08-17T10:01:50.412Z,94.90
2018-08-17T10:04:29.932Z,94.50
2018-08-17T10:16:02.744Z,94.60
2018-08-17T10:18:41.260Z,94.50
2018-08-17T10:21:15.874Z,93.30
2018-08-17T10:23:49.983Z,93.20
2018-08-17T10:26:24.316Z,92.70
2018-08-17T10:29:00.151Z,92.20
2018-08-17T10:31:34.516Z,91.60
2018-08-17T10:34:09.110Z,92.50
2018-08-17T10:36:43.829Z,92.80
2018-08-17T10:39:18.116Z,92.90
2018-08-17T10:41:52.464Z,92.50
2018-08-17T10:44:26.761Z,92.40
2018-08-17T10:47:01.066Z,91.70
2018-08-17T10:49:35.388Z,91.70
2018-08-17T10:52:09.615Z,92.50
2018-08-17T10:54:43.921Z,91.40
2018-08-17T10:57:18.368Z,90.20
2018-08-17T10:59:52.675Z,89.50
2018-08-17T11:02:26.964Z,90.30
2018-08-17T11:05:01.280Z,89.30
2018-08-17T11:07:38.724Z,89.20
2018-08-17T11:10:13.023Z,90.30
2018-08-17T11:12:47.792Z,90.10
2018-08-17T11:15:22.159Z,89.40
2018-08-17T11:17:56.473Z,89.20
2018-08-17T11:20:30.652Z,90.70
2018-08-17T11:23:05.092Z,90.30
2018-08-17T11:25:39.380Z,90.80
2018-08-17T11:28:13.744Z,90.10
2018-08-17T11:30:48.096Z,89.90
2018-08-17T11:33:26.065Z,89.80
2018-08-17T11:36:00.372Z,90.00
2018-08-17T11:38:34.712Z,89.30
2018-08-17T11:41:10.624Z,89.90
2018-08-17T11:43:44.979Z,89.10
2018-08-17T11:46:19.196Z,88.80
2018-08-17T11:48:53.663Z,88.50
2018-08-17T11:51:27.899Z,89.20
2018-08-17T11:54:02.209Z,90.30
2018-08-17T11:56:36.485Z,89.20
2018-08-17T11:59:10.792Z,89.50
2018-08-17T12:01:45.092Z,90.30
2018-08-17T12:04:19.363Z,90.80
2018-08-17T12:06:53.656Z,90.20
2018-08-17T12:09:27.968Z,86.10
2018-08-17T12:12:02.184Z,86.70
2018-08-17T12:14:36.380Z,87.70
2018-08-17T12:17:10.660Z,89.00
2018-08-17T12:19:44.956Z,87.40
2018-08-17T12:22:19.275Z,87.90
2018-08-17T12:24:53.520Z,86.50
2018-08-17T12:27:27.776Z,89.40
2018-08-17T12:30:02.058Z,87.60
2018-08-17T12:32:36.240Z,85.20
2018-08-17T12:35:10.464Z,88.10
2018-08-17T12:37:44.738Z,84.10
2018-08-17T12:40:18.956Z,85.50
2018-08-17T12:42:53.371Z,86.80
2018-08-17T12:45:28.081Z,84.50
2018-08-17T12:48:02.464Z,83.30
2018-08-17T12:50:37.304Z,81.00
2018-08-17T12:53:11.912Z,82.80
2018-08-17T12:55:46.105Z,82.60
2018-08-17T12:58:21.870Z,83.00
2018-08-17T13:00:56.186Z,81.60
2018-08-17T13:03:30.564Z,81.30
2018-08-17T13:06:04.807Z,81.80
2018-08-17T13:08:39.118Z,81.80
2018-08-17T13:11:13.423Z,80.10
2018-08-17T13:13:47.811Z,80.30
2018-08-17T13:16:22.004Z,77.40
2018-08-17T13:18:56.309Z,74.60
2018-08-17T13:21:30.648Z,79.00
2018-08-17T13:24:04.985Z,81.20
2018-08-17T13:26:39.307Z,81.90
2018-08-17T13:29:13.576Z,81.70
2018-08-17T13:31:48.028Z,79.80
2018-08-17T13:34:22.248Z,78.90
2018-08-17T13:36:56.464Z,80.50
2018-08-17T13:39:30.816Z,80.80
2018-08-17T13:42:05.268Z,78.60
2018-08-17T13:44:39.460Z,78.00
2018-08-17T13:47:13.789Z,76.50
2018-08-17T13:49:48.108Z,75.30
2018-08-17T13:52:22.464Z,72.50
2018-08-17T13:54:57.247Z,73.50
2018-08-17T13:57:31.409Z,73.60
2018-08-17T14:00:06.811Z,72.00
2018-08-17T14:02:41.108Z,70.50
2018-08-17T14:05:15.453Z,70.30
2018-08-17T14:07:49.720Z,69.30
2018-08-17T14:10:24.502Z,72.70
2018-08-17T14:12:58.900Z,68.60
2018-08-17T14:15:33.233Z,68.90
2018-08-17T14:18:07.486Z,70.10
2018-08-17T14:20:41.796Z,65.20
2018-08-17T14:23:16.119Z,63.20
2018-08-17T14:25:50.424Z,64.50
2018-08-17T14:28:24.640Z,65.50
2018-08-17T14:30:58.932Z,66.30
2018-08-17T14:33:33.160Z,65.30
2018-08-17T14:36:07.867Z,67.30
2018-08-17T14:38:42.104Z,66.40
2018-08-17T14:41:16.405Z,64.30
2018-08-17T14:43:50.717Z,65.30
2018-08-17T14:46:25.210Z,67.80
2018-08-17T14:48:59.606Z,67.00
2018-08-17T14:51:34.390Z,66.50
2018-08-17T14:54:09.732Z,65.00
2018-08-17T14:56:44.203Z,63.70
2018-08-17T14:59:18.447Z,64.40
2018-08-17T15:01:52.745Z,63.60
2018-08-17T15:04:27.155Z,60.50
2018-08-17T15:07:01.480Z,60.10
2018-08-17T15:09:35.895Z,59.90
2018-08-17T15:12:10.676Z,60.50
2018-08-17T15:14:45.024Z,62.30
2018-08-17T15:17:19.360Z,60.60
2018-08-17T15:19:53.743Z,60.70
2018-08-17T15:22:28.085Z,60.40
2018-08-17T15:25:02.307Z,59.30
2018-08-17T15:27:36.604Z,58.10
2018-08-17T15:30:11.972Z,61.50
2018-08-17T15:32:46.204Z,58.60
2018-08-17T15:35:20.539Z,57.00
2018-08-17T15:37:54.702Z,56.90
2018-08-17T15:40:29.187Z,57.10
2018-08-17T15:43:09.739Z,59.00
2018-08-17T15:45:44.187Z,57.80
2018-08-17T15:48:18.751Z,57.60
2018-08-17T15:50:52.969Z,56.80
2018-08-17T15:53:27.280Z,57.90
2018-08-17T15:56:01.508Z,56.90
2018-08-17T15:58:35.864Z,58.20
2018-08-17T16:01:10.604Z,59.50
2018-08-17T16:03:44.780Z,57.60
2018-08-17T16:06:19.112Z,56.70
2018-08-17T16:08:53.412Z,57.70
2018-08-17T16:11:27.748Z,56.20
2018-08-17T16:14:02.016Z,55.40
2018-08-17T16:16:36.665Z,55.40
2018-08-17T16:19:10.864Z,52.80
2018-08-17T16:21:45.154Z,54.00
2018-08-17T16:24:19.484Z,53.50
2018-08-17T16:26:53.775Z,56.60
2018-08-17T16:29:28.088Z,55.70
2018-08-17T16:32:02.483Z,54.20
2018-08-17T16:34:36.580Z,54.90
2018-08-17T16:37:10.847Z,56.70
2018-08-17T16:39:50.539Z,53.00
2018-08-17T16:42:29.017Z,53.30
2018-08-17T16:45:04.964Z,54.40
2018-08-17T16:47:39.152Z,55.00
2018-08-17T16:50:13.456Z,53.70
2018-08-17T16:52:47.740Z,55.50
2018-08-17T16:55:22.036Z,54.80
2018-08-17T16:57:56.296Z,55.10
2018-08-17T17:00:30.793Z,54.90
2018-08-17T17:03:04.916Z,55.30
2018-08-17T17:05:39.136Z,54.70
2018-08-17T17:08:13.496Z,54.60
2018-08-17T17:10:47.836Z,55.20
2018-08-17T17:13:22.223Z,54.50
2018-08-17T17:15:56.537Z,54.20
2018-08-17T17:18:31.284Z,56.60
2018-08-17T17:21:05.603Z,56.60
2018-08-17T17:23:45.196Z,57.00
2018-08-17T17:26:19.493Z,57.80
2018-08-17T17:28:53.777Z,55.10
2018-08-17T17:31:28.092Z,56.90
2018-08-17T17:34:02.460Z,56.00
2018-08-17T17:36:37.218Z,56.00
2018-08-17T17:39:13.080Z,58.60
2018-08-17T17:41:47.449Z,56.00
2018-08-17T17:44:21.668Z,56.70
2018-08-17T17:46:55.904Z,57.10
2018-08-17T17:49:30.251Z,57.30
2018-08-17T17:52:04.618Z,57.50
2018-08-17T17:54:38.891Z,58.70
2018-08-17T17:57:13.224Z,59.50
2018-08-17T17:59:52.852Z,58.90
2018-08-17T18:02:28.080Z,60.60
2018-08-17T18:05:02.400Z,63.10
2018-08-17T18:07:43.900Z,63.40
2018-08-17T18:10:20.310Z,63.20
2018-08-17T18:12:54.591Z,64.00
2018-08-17T18:15:28.903Z,62.50
2018-08-17T18:18:03.192Z,63.40
2018-08-17T18:20:37.484Z,65.00
2018-08-17T18:23:11.670Z,66.10
2018-08-17T18:25:46.018Z,67.50
2018-08-17T18:28:20.321Z,65.40
2018-08-17T18:30:54.568Z,65.20
2018-08-17T18:33:28.973Z,66.30
2018-08-17T18:36:03.176Z,66.40
2018-08-17T18:38:37.455Z,67.90
2018-08-17T18:41:11.836Z,67.80
2018-08-17T18:43:46.188Z,67.90
2018-08-17T18:46:20.499Z,69.40
2018-08-17T18:48:54.919Z,69.00
2018-08-17T18:51:29.116Z,70.10
2018-08-17T18:54:03.644Z,70.50
2018-08-17T18:56:38.003Z,70.40
2018-08-17T18:59:12.269Z,70.80
2018-08-17T19:01:46.528Z,72.10
2018-08-17T19:04:20.818Z,74.00
2018-08-17T19:06:54.960Z,74.10
2018-08-17T19:09:29.371Z,75.60
2018-08-17T19:12:03.553Z,76.20
2018-08-17T19:14:47.732Z,77.00
2018-08-17T19:17:27.532Z,76.70
2018-08-17T19:20:01.940Z,76.60
2018-08-17T19:22:37.034Z,77.10
2018-08-17T19:25:12.279Z,77.00
2018-08-17T19:27:46.652Z,77.60
2018-08-17T19:30:26.998Z,78.10
2018-08-17T19:33:07.468Z,78.70
2018-08-17T19:35:45.563Z,78.80
2018-08-17T19:38:19.767Z,77.40
2018-08-17T19:40:54.010Z,78.10
2018-08-17T19:43:28.268Z,78.40
2018-08-17T19:46:02.796Z,78.90
2018-08-17T19:48:36.908Z,79.00
2018-08-17T19:51:17.684Z,79.80
2018-08-17T19:53:52.008Z,80.60
2018-08-17T19:56:26.332Z,81.00
2018-08-17T19:59:00.700Z,81.20
2018-08-17T20:01:35.377Z,81.80
2018-08-17T20:04:09.883Z,81.90
2018-08-17T20:06:44.119Z,82.40
2018-08-17T20:09:18.413Z,82.20
2018-08-17T20:11:52.765Z,82.20
2018-08-17T20:14:26.965Z,83.10
2018-08-17T20:17:01.264Z,83.30
2018-08-17T20:19:40.892Z,83.70
2018-08-17T20:22:17.383Z,83.80
2018-08-17T20:24:51.738Z,84.10
2018-08-17T20:27:26.096Z,84.40
2018-08-17T20:30:05.526Z,84.70
2018-08-17T20:32:39.689Z,84.80
2018-08-17T20:35:13.972Z,85.40
2018-08-17T20:37:50.669Z,85.20
2018-08-17T20:40:24.887Z,85.30
2018-08-17T20:42:59.210Z,85.50
2018-08-17T20:45:33.335Z,85.50
2018-08-17T20:48:07.680Z,85.50
2018-08-17T20:50:41.864Z,85.60
2018-08-17T20:53:19.128Z,85.30
2018-08-17T20:55:53.507Z,85.50
2018-08-17T20:58:27.816Z,85.80
2018-08-17T21:01:02.216Z,87.70
2018-08-17T21:03:36.480Z,87.60
2018-08-17T21:06:10.808Z,87.30
2018-08-17T21:08:45.140Z,87.40
2018-08-17T21:11:19.348Z,87.50
2018-08-17T21:13:53.520Z,87.70
2018-08-17T21:16:27.872Z,87.90
2018-08-17T21:19:02.079Z,88.20
2018-08-17T21:21:36.481Z,87.20
2018-08-17T21:24:10.760Z,87.50
2018-08-17T21:26:45.080Z,87.90
2018-08-17T21:29:19.411Z,87.10
2018-08-17T21:31:53.588Z,87.10
2018-08-17T21:34:27.918Z,86.80
2018-08-17T21:37:02.131Z,87.00
2018-08-17T21:39:36.344Z,87.60
2018-08-17T21:42:10.625Z,87.50
2018-08-17T21:44:44.832Z,88.40
2018-08-17T21:47:19.035Z,88.10
2018-08-17T21:49:54.691Z,88.10
2018-08-17T21:52:28.953Z,88.50
2018-08-17T21:55:03.266Z,89.10
2018-08-17T21:57:37.573Z,88.80
2018-08-17T22:00:18.748Z,89.40
2018-08-17T22:02:52.968Z,90.10
2018-08-17T22:05:29.164Z,89.80
2018-08-17T22:08:03.579Z,89.80
2018-08-17T22:10:37.995Z,89.40
2018-08-17T22:13:24.101Z,88.40
2018-08-17T22:15:58.624Z,88.10
2018-08-17T22:18:33.064Z,88.00
2018-08-17T22:21:07.409Z,88.40
2018-08-17T22:23:41.591Z,87.70
2018-08-17T22:26:15.943Z,87.20
2018-08-17T22:28:50.281Z,86.60
2018-08-17T22:31:36.624Z,86.10
2018-08-17T22:34:10.852Z,86.50
2018-08-17T22:36:45.244Z,86.70
2018-08-17T22:39:19.613Z,86.50
2018-08-17T22:41:54.049Z,87.30
2018-08-17T22:44:28.135Z,86.60
2018-08-17T22:47:11.589Z,87.20
2018-08-17T22:49:46.368Z,86.80
2018-08-17T22:52:20.794Z,86.60
2018-08-17T22:55:03.792Z,86.20
2018-08-17T22:57:38.066Z,86.80
2018-08-17T23:00:18.288Z,86.80
2018-08-17T23:02:53.707Z,86.40
2018-08-17T23:05:29.580Z,87.00
2018-08-17T23:08:03.776Z,86.40
2018-08-17T23:10:38.104Z,85.50
2018-08-17T23:13:12.415Z,86.70
2018-08-17T23:15:46.663Z,86.20
2018-08-17T23:18:21.015Z,86.40
2018-08-17T23:20:55.340Z,86.40
2018-08-17T23:23:30.476Z,86.80
2018-08-17T23:26:04.803Z,87.70
2018-08-17T23:28:39.011Z,88.60
2018-08-17T23:31:13.299Z,88.80
2018-08-17T23:33:47.556Z,88.50
2018-08-17T23:36:21.820Z,87.70
2018-08-17T23:38:56.108Z,87.90
2018-08-17T23:41:30.516Z,87.80
2018-08-17T23:44:04.960Z,87.40
2018-08-17T23:46:39.265Z,86.70
2018-08-17T23:49:13.570Z,86.90
2018-08-17T23:51:47.888Z,87.00
2018-08-17T23:54:22.204Z,87.00
2018-08-17T23:56:56.408Z,87.10
2018-08-17T23:59:30.692Z,88.10
